sensor_id;sensor_type;location;lat;lon;timestamp;pressure;altitude;pressure_sealevel;temperature;humidity
15308;BME280;7755;52.208;6.964;2023-02-17T00:02:26;101459.47;;;10.04;100.00
15308;BME280;7755;52.208;6.964;2023-02-17T00:06:29;101460.09;;;10.06;100.00
15308;BME280;7755;52.208;6.964;2023-02-17T00:10:34;101468.00;;;10.07;100.00
15308;BME280;7755;52.208;6.964;2023-02-17T00:14:37;101468.00;;;10.07;100.00
15308;BME280;7755;52.208;6.964;2023-02-17T00:18:40;101474.50;;;10.06;100.00
15308;BME280;7755;52.208;6.964;2023-02-17T00:22:44;101471.78;;;10.06;100.00
15308;BME280;7755;52.208;6.964;2023-02-17T00:26:48;101470.50;;;10.09;100.00
15308;BME280;7755;52.208;6.964;2023-02-17T00:30:51;101465.28;;;10.07;100.00
15308;BME280;7755;52.208;6.964;2023-02-17T00:34:54;101461.53;;;10.08;100.00
15308;BME280;7755;52.208;6.964;2023-02-17T00:38:59;101454.84;;;10.11;100.00
15308;BME280;7755;52.208;6.964;2023-02-17T00:43:03;101456.72;;;10.10;100.00
15308;BME280;7755;52.208;6.964;2023-02-17T00:47:06;101445.03;;;10.10;100.00
15308;BME280;7755;52.208;6.964;2023-02-17T00:51:10;101442.50;;;10.08;100.00
15308;BME280;7755;52.208;6.964;2023-02-17T00:55:12;101437.47;;;10.12;100.00
15308;BME280;7755;52.208;6.964;2023-02-17T00:59:17;101435.81;;;10.11;100.00
15308;BME280;7755;52.208;6.964;2023-02-17T01:03:20;101449.41;;;10.11;100.00
15308;BME280;7755;52.208;6.964;2023-02-17T01:07:25;101438.75;;;10.09;100.00
15308;BME280;7755;52.208;6.964;2023-02-17T01:11:30;101434.97;;;10.10;100.00
15308;BME280;7755;52.208;6.964;2023-02-17T01:15:37;101431.44;;;10.10;100.00
15308;BME280;7755;52.208;6.964;2023-02-17T01:19:40;101432.47;;;10.09;100.00
15308;BME280;7755;52.208;6.964;2023-02-17T01:23:43;101437.91;;;10.09;100.00
15308;BME280;7755;52.208;6.964;2023-02-17T01:27:46;101437.69;;;10.10;100.00
15308;BME280;7755;52.208;6.964;2023-02-17T01:31:50;101436.81;;;10.17;100.00
15308;BME280;7755;52.208;6.964;2023-02-17T01:35:53;101431.16;;;10.18;100.00
15308;BME280;7755;52.208;6.964;2023-02-17T01:39:56;101435.53;;;10.19;100.00
15308;BME280;7755;52.208;6.964;2023-02-17T01:44:08;101422.78;;;10.20;100.00
15308;BME280;7755;52.208;6.964;2023-02-17T01:48:14;101415.91;;;10.24;100.00
15308;BME280;7755;52.208;6.964;2023-02-17T01:52:22;101405.63;;;10.26;100.00
15308;BME280;7755;52.208;6.964;2023-02-17T01:56:27;101378.69;;;10.24;100.00
15308;BME280;7755;52.208;6.964;2023-02-17T02:00:33;101363.44;;;10.23;100.00
15308;BME280;7755;52.208;6.964;2023-02-17T02:04:40;101357.13;;;10.23;100.00
15308;BME280;7755;52.208;6.964;2023-02-17T02:08:48;101355.06;;;10.25;100.00
15308;BME280;7755;52.208;6.964;2023-02-17T02:12:54;101348.78;;;10.24;100.00
15308;BME280;7755;52.208;6.964;2023-02-17T02:17:05;101368.41;;;10.26;100.00
15308;BME280;7755;52.208;6.964;2023-02-17T02:26:27;101374.84;;;10.32;100.00
15308;BME280;7755;52.208;6.964;2023-02-17T02:30:58;101375.22;;;10.35;100.00
15308;BME280;7755;52.208;6.964;2023-02-17T02:35:06;101387.16;;;10.34;100.00
15308;BME280;7755;52.208;6.964;2023-02-17T02:39:13;101371.47;;;10.36;100.00
15308;BME280;7755;52.208;6.964;2023-02-17T02:43:17;101353.88;;;10.39;100.00
15308;BME280;7755;52.208;6.964;2023-02-17T02:47:49;101354.47;;;10.41;100.00
15308;BME280;7755;52.208;6.964;2023-02-17T02:52:04;101346.31;;;10.41;100.00
15308;BME280;7755;52.208;6.964;2023-02-17T02:56:16;101341.72;;;10.42;100.00
15308;BME280;7755;52.208;6.964;2023-02-17T03:00:29;101359.69;;;10.43;100.00
15308;BME280;7755;52.208;6.964;2023-02-17T03:04:36;101339.63;;;10.44;100.00
15308;BME280;7755;52.208;6.964;2023-02-17T03:08:48;101342.72;;;10.47;100.00
15308;BME280;7755;52.208;6.964;2023-02-17T03:12:54;101340.00;;;10.47;100.00
15308;BME280;7755;52.208;6.964;2023-02-17T03:16:57;101343.53;;;10.48;100.00
15308;BME280;7755;52.208;6.964;2023-02-17T03:21:04;101332.44;;;10.49;100.00
15308;BME280;7755;52.208;6.964;2023-02-17T03:25:09;101328.69;;;10.50;100.00
15308;BME280;7755;52.208;6.964;2023-02-17T03:29:13;101321.13;;;10.52;100.00
15308;BME280;7755;52.208;6.964;2023-02-17T03:33:16;101309.66;;;10.50;100.00
15308;BME280;7755;52.208;6.964;2023-02-17T03:37:19;101324.84;;;10.58;100.00
15308;BME280;7755;52.208;6.964;2023-02-17T03:41:23;101319.00;;;10.54;100.00
15308;BME280;7755;52.208;6.964;2023-02-17T03:45:27;101303.91;;;10.58;100.00
15308;BME280;7755;52.208;6.964;2023-02-17T03:49:30;101307.47;;;10.59;100.00
15308;BME280;7755;52.208;6.964;2023-02-17T03:53:32;101288.66;;;10.57;100.00
15308;BME280;7755;52.208;6.964;2023-02-17T03:57:37;101275.91;;;10.58;100.00
15308;BME280;7755;52.208;6.964;2023-02-17T04:01:39;101292.41;;;10.56;100.00
15308;BME280;7755;52.208;6.964;2023-02-17T04:05:43;101289.09;;;10.54;100.00
15308;BME280;7755;52.208;6.964;2023-02-17T04:09:46;101298.09;;;10.55;100.00
15308;BME280;7755;52.208;6.964;2023-02-17T04:13:50;101289.09;;;10.54;100.00
15308;BME280;7755;52.208;6.964;2023-02-17T04:17:53;101280.72;;;10.56;100.00
15308;BME280;7755;52.208;6.964;2023-02-17T04:21:56;101278.81;;;10.56;100.00
15308;BME280;7755;52.208;6.964;2023-02-17T04:25:59;101276.72;;;10.58;100.00
15308;BME280;7755;52.208;6.964;2023-02-17T04:30:04;101267.34;;;10.54;100.00
15308;BME280;7755;52.208;6.964;2023-02-17T04:34:07;101282.84;;;10.54;100.00
15308;BME280;7755;52.208;6.964;2023-02-17T04:38:10;101276.56;;;10.53;100.00
15308;BME280;7755;52.208;6.964;2023-02-17T04:42:13;101278.22;;;10.54;100.00
15308;BME280;7755;52.208;6.964;2023-02-17T04:46:18;101297.31;;;10.48;100.00
15308;BME280;7755;52.208;6.964;2023-02-17T04:50:21;101290.81;;;10.49;100.00
15308;BME280;7755;52.208;6.964;2023-02-17T04:54:24;101289.16;;;10.48;100.00
15308;BME280;7755;52.208;6.964;2023-02-17T04:58:27;101273.00;;;10.53;100.00
15308;BME280;7755;52.208;6.964;2023-02-17T05:02:31;101277.84;;;10.51;100.00
15308;BME280;7755;52.208;6.964;2023-02-17T05:06:34;101249.84;;;10.50;100.00
15308;BME280;7755;52.208;6.964;2023-02-17T05:10:38;101257.13;;;10.50;100.00
15308;BME280;7755;52.208;6.964;2023-02-17T05:14:41;101257.84;;;10.45;100.00
15308;BME280;7755;52.208;6.964;2023-02-17T05:18:45;101243.66;;;10.43;100.00
15308;BME280;7755;52.208;6.964;2023-02-17T05:22:48;101260.31;;;10.47;100.00
15308;BME280;7755;52.208;6.964;2023-02-17T05:26:51;101245.06;;;10.46;100.00
15308;BME280;7755;52.208;6.964;2023-02-17T05:30:54;101237.75;;;10.46;100.00
15308;BME280;7755;52.208;6.964;2023-02-17T05:34:58;101230.66;;;10.45;100.00
15308;BME280;7755;52.208;6.964;2023-02-17T05:39:01;101229.59;;;10.46;100.00
15308;BME280;7755;52.208;6.964;2023-02-17T05:43:04;101248.84;;;10.45;100.00
15308;BME280;7755;52.208;6.964;2023-02-17T05:47:07;101260.56;;;10.45;100.00
15308;BME280;7755;52.208;6.964;2023-02-17T05:51:11;101261.16;;;10.47;100.00
15308;BME280;7755;52.208;6.964;2023-02-17T05:55:17;101255.94;;;10.46;100.00
15308;BME280;7755;52.208;6.964;2023-02-17T05:59:20;101255.72;;;10.47;100.00
15308;BME280;7755;52.208;6.964;2023-02-17T06:03:23;101237.75;;;10.46;100.00
15308;BME280;7755;52.208;6.964;2023-02-17T06:07:27;101236.09;;;10.45;100.00
15308;BME280;7755;52.208;6.964;2023-02-17T06:11:30;101234.28;;;10.39;100.00
15308;BME280;7755;52.208;6.964;2023-02-17T06:15:33;101240.84;;;10.31;100.00
15308;BME280;7755;52.208;6.964;2023-02-17T06:19:36;101237.97;;;10.26;100.00
15308;BME280;7755;52.208;6.964;2023-02-17T06:23:40;101240.09;;;10.24;100.00
15308;BME280;7755;52.208;6.964;2023-02-17T06:27:43;101237.19;;;10.19;100.00
15308;BME280;7755;52.208;6.964;2023-02-17T06:31:46;101224.25;;;10.15;100.00
15308;BME280;7755;52.208;6.964;2023-02-17T06:35:50;101215.50;;;10.12;100.00
15308;BME280;7755;52.208;6.964;2023-02-17T06:39:54;101223.66;;;10.12;100.00
15308;BME280;7755;52.208;6.964;2023-02-17T06:43:57;101216.34;;;10.13;100.00
15308;BME280;7755;52.208;6.964;2023-02-17T06:48:00;101227.44;;;10.11;100.00
15308;BME280;7755;52.208;6.964;2023-02-17T06:52:03;101229.91;;;10.13;100.00
15308;BME280;7755;52.208;6.964;2023-02-17T06:56:07;101230.75;;;10.13;100.00
15308;BME280;7755;52.208;6.964;2023-02-17T07:00:11;101228.84;;;10.14;100.00
15308;BME280;7755;52.208;6.964;2023-02-17T07:04:14;101222.75;;;10.19;100.00
15308;BME280;7755;52.208;6.964;2023-02-17T07:08:17;101229.41;;;10.23;100.00
15308;BME280;7755;52.208;6.964;2023-02-17T07:12:21;101238.84;;;10.20;100.00
15308;BME280;7755;52.208;6.964;2023-02-17T07:16:24;101216.69;;;10.23;100.00
15308;BME280;7755;52.208;6.964;2023-02-17T07:20:27;101221.91;;;10.25;100.00
15308;BME280;7755;52.208;6.964;2023-02-17T07:24:30;101224.16;;;10.28;100.00
15308;BME280;7755;52.208;6.964;2023-02-17T07:28:36;101226.19;;;10.32;100.00
15308;BME280;7755;52.208;6.964;2023-02-17T07:32:39;101222.06;;;10.30;100.00
15308;BME280;7755;52.208;6.964;2023-02-17T07:36:42;101212.84;;;10.31;100.00
15308;BME280;7755;52.208;6.964;2023-02-17T07:40:45;101206.94;;;10.34;100.00
15308;BME280;7755;52.208;6.964;2023-02-17T07:44:49;101212.28;;;10.41;100.00
15308;BME280;7755;52.208;6.964;2023-02-17T07:48:52;101199.78;;;10.39;100.00
15308;BME280;7755;52.208;6.964;2023-02-17T07:52:55;101199.94;;;10.45;100.00
15308;BME280;7755;52.208;6.964;2023-02-17T07:56:58;101192.59;;;10.45;100.00
15308;BME280;7755;52.208;6.964;2023-02-17T08:01:05;101212.69;;;10.44;100.00
15308;BME280;7755;52.208;6.964;2023-02-17T08:05:08;101213.03;;;10.48;100.00
15308;BME280;7755;52.208;6.964;2023-02-17T08:09:11;101209.06;;;10.50;100.00
15308;BME280;7755;52.208;6.964;2023-02-17T08:13:31;101206.09;;;10.52;100.00
15308;BME280;7755;52.208;6.964;2023-02-17T08:17:36;101211.91;;;10.55;100.00
15308;BME280;7755;52.208;6.964;2023-02-17T08:21:39;101206.25;;;10.57;100.00
15308;BME280;7755;52.208;6.964;2023-02-17T08:25:41;101200.81;;;10.57;100.00
15308;BME280;7755;52.208;6.964;2023-02-17T08:29:44;101177.53;;;10.61;100.00
15308;BME280;7755;52.208;6.964;2023-02-17T08:33:49;101182.75;;;10.62;100.00
15308;BME280;7755;52.208;6.964;2023-02-17T08:37:52;101205.94;;;10.65;100.00
15308;BME280;7755;52.208;6.964;2023-02-17T08:41:55;101215.09;;;10.71;100.00
15308;BME280;7755;52.208;6.964;2023-02-17T08:45:58;101218.41;;;10.73;100.00
15308;BME280;7755;52.208;6.964;2023-02-17T08:50:03;101228.59;;;10.77;100.00
15308;BME280;7755;52.208;6.964;2023-02-17T08:54:07;101229.78;;;10.81;100.00
15308;BME280;7755;52.208;6.964;2023-02-17T08:58:11;101220.13;;;10.85;100.00
15308;BME280;7755;52.208;6.964;2023-02-17T09:02:15;101224.84;;;10.90;100.00
15308;BME280;7755;52.208;6.964;2023-02-17T09:06:19;101225.00;;;10.95;100.00
15308;BME280;7755;52.208;6.964;2023-02-17T09:10:23;101243.72;;;11.03;100.00
15308;BME280;7755;52.208;6.964;2023-02-17T09:14:26;101237.81;;;11.06;100.00
15308;BME280;7755;52.208;6.964;2023-02-17T09:18:29;101264.13;;;11.12;100.00
15308;BME280;7755;52.208;6.964;2023-02-17T09:22:33;101267.81;;;11.18;100.00
15308;BME280;7755;52.208;6.964;2023-02-17T09:26:36;101265.44;;;11.21;100.00
15308;BME280;7755;52.208;6.964;2023-02-17T09:30:39;101246.06;;;11.30;100.00
15308;BME280;7755;52.208;6.964;2023-02-17T09:34:42;101256.13;;;11.29;100.00
15308;BME280;7755;52.208;6.964;2023-02-17T09:38:52;101247.50;;;11.32;100.00
15308;BME280;7755;52.208;6.964;2023-02-17T09:42:55;101265.66;;;11.38;100.00
15308;BME280;7755;52.208;6.964;2023-02-17T09:47:02;101252.38;;;11.42;100.00
15308;BME280;7755;52.208;6.964;2023-02-17T09:51:12;101213.81;;;11.45;100.00
15308;BME280;7755;52.208;6.964;2023-02-17T09:55:23;101202.19;;;11.49;100.00
15308;BME280;7755;52.208;6.964;2023-02-17T09:59:31;101202.09;;;11.56;100.00
15308;BME280;7755;52.208;6.964;2023-02-17T10:03:40;101192.63;;;11.59;100.00
15308;BME280;7755;52.208;6.964;2023-02-17T10:07:47;101172.84;;;11.63;100.00
15308;BME280;7755;52.208;6.964;2023-02-17T10:12:00;101184.69;;;11.69;100.00
15308;BME280;7755;52.208;6.964;2023-02-17T10:16:06;101200.09;;;11.75;100.00
15308;BME280;7755;52.208;6.964;2023-02-17T10:20:13;101198.56;;;11.79;100.00
15308;BME280;7755;52.208;6.964;2023-02-17T10:24:17;101209.84;;;11.83;100.00
15308;BME280;7755;52.208;6.964;2023-02-17T10:28:29;101203.81;;;11.81;100.00
15308;BME280;7755;52.208;6.964;2023-02-17T10:32:45;101192.31;;;11.90;100.00
15308;BME280;7755;52.208;6.964;2023-02-17T10:36:56;101190.28;;;11.97;100.00
15308;BME280;7755;52.208;6.964;2023-02-17T10:41:02;101185.66;;;11.98;100.00
15308;BME280;7755;52.208;6.964;2023-02-17T10:45:12;101191.59;;;12.07;100.00
15308;BME280;7755;52.208;6.964;2023-02-17T10:49:22;101181.28;;;12.09;100.00
15308;BME280;7755;52.208;6.964;2023-02-17T10:53:29;101178.06;;;12.12;100.00
15308;BME280;7755;52.208;6.964;2023-02-17T10:57:36;101191.59;;;12.07;100.00
15308;BME280;7755;52.208;6.964;2023-02-17T11:01:41;101199.16;;;12.16;100.00
15308;BME280;7755;52.208;6.964;2023-02-17T11:05:52;101200.25;;;12.15;100.00
15308;BME280;7755;52.208;6.964;2023-02-17T11:09:58;101215.06;;;12.19;100.00
15308;BME280;7755;52.208;6.964;2023-02-17T11:14:10;101222.50;;;12.24;100.00
15308;BME280;7755;52.208;6.964;2023-02-17T11:18:19;101228.53;;;12.26;100.00
15308;BME280;7755;52.208;6.964;2023-02-17T11:22:34;101221.22;;;12.26;100.00
15308;BME280;7755;52.208;6.964;2023-02-17T11:26:39;101201.63;;;12.29;100.00
15308;BME280;7755;52.208;6.964;2023-02-17T11:30:49;101197.72;;;12.25;100.00
15308;BME280;7755;52.208;6.964;2023-02-17T11:34:58;101225.81;;;12.26;100.00
15308;BME280;7755;52.208;6.964;2023-02-17T11:39:16;101227.00;;;12.18;100.00
15308;BME280;7755;52.208;6.964;2023-02-17T11:43:19;101226.19;;;12.18;100.00
15308;BME280;7755;52.208;6.964;2023-02-17T11:47:29;101225.47;;;12.11;100.00
15308;BME280;7755;52.208;6.964;2023-02-17T11:51:46;101215.06;;;12.08;100.00
15308;BME280;7755;52.208;6.964;2023-02-17T11:56:02;101239.47;;;12.02;100.00
15308;BME280;7755;52.208;6.964;2023-02-17T12:00:17;101255.13;;;12.07;100.00
15308;BME280;7755;52.208;6.964;2023-02-17T12:04:24;101232.94;;;12.03;100.00
15308;BME280;7755;52.208;6.964;2023-02-17T12:08:37;101225.59;;;12.04;100.00
15308;BME280;7755;52.208;6.964;2023-02-17T12:13:01;101235.78;;;11.97;100.00
15308;BME280;7755;52.208;6.964;2023-02-17T12:17:13;101242.19;;;11.91;100.00
15308;BME280;7755;52.208;6.964;2023-02-17T12:21:27;101226.91;;;11.90;100.00
15308;BME280;7755;52.208;6.964;2023-02-17T12:25:35;101226.66;;;11.91;100.00
15308;BME280;7755;52.208;6.964;2023-02-17T12:29:55;101229.28;;;11.86;100.00
15308;BME280;7755;52.208;6.964;2023-02-17T12:34:08;101248.22;;;11.81;100.00
15308;BME280;7755;52.208;6.964;2023-02-17T12:38:17;101258.28;;;11.81;100.00
15308;BME280;7755;52.208;6.964;2023-02-17T12:42:25;101252.00;;;11.80;100.00
15308;BME280;7755;52.208;6.964;2023-02-17T12:46:32;101276.28;;;11.82;100.00
15308;BME280;7755;52.208;6.964;2023-02-17T12:50:38;101298.69;;;11.84;100.00
15308;BME280;7755;52.208;6.964;2023-02-17T12:54:46;101293.00;;;11.85;100.00
15308;BME280;7755;52.208;6.964;2023-02-17T12:58:55;101298.69;;;11.84;100.00
15308;BME280;7755;52.208;6.964;2023-02-17T13:03:01;101296.75;;;11.72;100.00
15308;BME280;7755;52.208;6.964;2023-02-17T13:07:31;101290.09;;;11.68;100.00
15308;BME280;7755;52.208;6.964;2023-02-17T13:11:37;101306.31;;;11.63;100.00
15308;BME280;7755;52.208;6.964;2023-02-17T13:15:42;101307.59;;;11.61;100.00
15308;BME280;7755;52.208;6.964;2023-02-17T13:19:46;101318.13;;;11.57;100.00
15308;BME280;7755;52.208;6.964;2023-02-17T13:23:58;101333.03;;;11.55;100.00
15308;BME280;7755;52.208;6.964;2023-02-17T13:28:02;101321.09;;;11.56;100.00
15308;BME280;7755;52.208;6.964;2023-02-17T13:32:26;101324.63;;;11.56;100.00
15308;BME280;7755;52.208;6.964;2023-02-17T13:36:38;101325.47;;;11.57;100.00
15308;BME280;7755;52.208;6.964;2023-02-17T13:40:42;101328.66;;;11.54;100.00
15308;BME280;7755;52.208;6.964;2023-02-17T13:44:45;101314.34;;;11.58;100.00
15308;BME280;7755;52.208;6.964;2023-02-17T13:49:00;101318.75;;;11.59;100.00
15308;BME280;7755;52.208;6.964;2023-02-17T13:53:19;101325.03;;;11.60;100.00
15308;BME280;7755;52.208;6.964;2023-02-17T13:57:26;101336.25;;;11.63;100.00
15308;BME280;7755;52.208;6.964;2023-02-17T14:01:29;101310.69;;;11.64;100.00
15308;BME280;7755;52.208;6.964;2023-02-17T14:05:39;101325.38;;;11.63;100.00
15308;BME280;7755;52.208;6.964;2023-02-17T14:09:51;101335.91;;;11.60;100.00
15308;BME280;7755;52.208;6.964;2023-02-17T14:13:55;101326.28;;;11.57;100.00
15308;BME280;7755;52.208;6.964;2023-02-17T14:17:59;101308.44;;;11.61;100.00
15308;BME280;7755;52.208;6.964;2023-02-17T14:22:04;101325.69;;;11.55;100.00
15308;BME280;7755;52.208;6.964;2023-02-17T14:26:13;101316.72;;;11.55;100.00
15308;BME280;7755;52.208;6.964;2023-02-17T14:30:27;101320.50;;;11.54;100.00
15308;BME280;7755;52.208;6.964;2023-02-17T14:34:32;101312.56;;;11.52;100.00
15308;BME280;7755;52.208;6.964;2023-02-17T14:38:39;101315.72;;;11.49;100.00
15308;BME280;7755;52.208;6.964;2023-02-17T14:42:43;101321.78;;;11.51;100.00
15308;BME280;7755;52.208;6.964;2023-02-17T14:46:46;101326.19;;;11.52;100.00
15308;BME280;7755;52.208;6.964;2023-02-17T14:50:49;101322.16;;;11.55;100.00
15308;BME280;7755;52.208;6.964;2023-02-17T14:54:57;101342.53;;;11.52;100.00
15308;BME280;7755;52.208;6.964;2023-02-17T14:59:01;101354.34;;;11.58;100.00
15308;BME280;7755;52.208;6.964;2023-02-17T15:03:03;101345.34;;;11.57;100.00
15308;BME280;7755;52.208;6.964;2023-02-17T15:07:09;101341.22;;;11.55;100.00
15308;BME280;7755;52.208;6.964;2023-02-17T15:11:18;101351.03;;;11.56;100.00
15308;BME280;7755;52.208;6.964;2023-02-17T15:15:22;101359.81;;;11.58;100.00
15308;BME280;7755;52.208;6.964;2023-02-17T15:19:24;101375.94;;;11.59;100.00
15308;BME280;7755;52.208;6.964;2023-02-17T15:23:29;101360.63;;;11.58;100.00
15308;BME280;7755;52.208;6.964;2023-02-17T15:27:34;101357.91;;;11.58;100.00
15308;BME280;7755;52.208;6.964;2023-02-17T15:31:37;101375.69;;;11.61;100.00
15308;BME280;7755;52.208;6.964;2023-02-17T15:35:40;101353.31;;;11.59;100.00
15308;BME280;7755;52.208;6.964;2023-02-17T15:39:44;101374.25;;;11.58;100.00
15308;BME280;7755;52.208;6.964;2023-02-17T15:43:48;101381.59;;;11.58;100.00
15308;BME280;7755;52.208;6.964;2023-02-17T15:47:58;101371.53;;;11.58;100.00
15308;BME280;7755;52.208;6.964;2023-02-17T15:52:03;101393.94;;;11.60;100.00
15308;BME280;7755;52.208;6.964;2023-02-17T15:56:15;101402.47;;;11.64;100.00
15308;BME280;7755;52.208;6.964;2023-02-17T16:00:24;101399.53;;;11.65;100.00
15308;BME280;7755;52.208;6.964;2023-02-17T16:04:27;101416.47;;;11.67;100.00
15308;BME280;7755;52.208;6.964;2023-02-17T16:08:30;101420.25;;;11.66;100.00
15308;BME280;7755;52.208;6.964;2023-02-17T16:12:33;101425.63;;;11.73;100.00
15308;BME280;7755;52.208;6.964;2023-02-17T16:16:37;101424.16;;;11.70;100.00
15308;BME280;7755;52.208;6.964;2023-02-17T16:20:40;101429.41;;;11.72;100.00
15308;BME280;7755;52.208;6.964;2023-02-17T16:24:43;101434.63;;;11.73;100.00
15308;BME280;7755;52.208;6.964;2023-02-17T16:28:46;101437.56;;;11.72;100.00
15308;BME280;7755;52.208;6.964;2023-02-17T16:32:50;101451.19;;;11.72;100.00
15308;BME280;7755;52.208;6.964;2023-02-17T16:36:55;101456.41;;;11.73;100.00
15308;BME280;7755;52.208;6.964;2023-02-17T16:40:59;101466.84;;;11.76;100.00
15308;BME280;7755;52.208;6.964;2023-02-17T16:45:02;101458.41;;;11.78;100.00
15308;BME280;7755;52.208;6.964;2023-02-17T16:49:17;101463.03;;;11.77;100.00
15308;BME280;7755;52.208;6.964;2023-02-17T16:53:20;101460.31;;;11.77;100.00
15308;BME280;7755;52.208;6.964;2023-02-17T16:57:23;101456.56;;;11.79;100.00
15308;BME280;7755;52.208;6.964;2023-02-17T17:01:26;101465.56;;;11.79;100.00
15308;BME280;7755;52.208;6.964;2023-02-17T17:05:31;101464.28;;;11.82;100.00
15308;BME280;7755;52.208;6.964;2023-02-17T17:09:34;101480.63;;;11.82;100.00
15308;BME280;7755;52.208;6.964;2023-02-17T17:13:37;101480.00;;;11.80;100.00
15308;BME280;7755;52.208;6.964;2023-02-17T17:17:43;101486.81;;;11.70;100.00
15308;BME280;7755;52.208;6.964;2023-02-17T17:21:49;101492.75;;;11.67;100.00
15308;BME280;7755;52.208;6.964;2023-02-17T17:25:51;101505.97;;;11.64;100.00
15308;BME280;7755;52.208;6.964;2023-02-17T17:29:56;101512.72;;;11.61;100.00
15308;BME280;7755;52.208;6.964;2023-02-17T17:33:59;101530.13;;;11.60;100.00
15308;BME280;7755;52.208;6.964;2023-02-17T17:38:04;101533.06;;;11.59;100.00
15308;BME280;7755;52.208;6.964;2023-02-17T17:42:08;101550.69;;;11.56;100.00
15308;BME280;7755;52.208;6.964;2023-02-17T17:46:13;101570.81;;;11.55;100.00
15308;BME280;7755;52.208;6.964;2023-02-17T17:50:19;101575.50;;;11.48;100.00
15308;BME280;7755;52.208;6.964;2023-02-17T17:54:23;101583.72;;;11.41;100.00
15308;BME280;7755;52.208;6.964;2023-02-17T17:58:26;101582.50;;;11.37;100.00
15308;BME280;7755;52.208;6.964;2023-02-17T18:02:31;101603.91;;;11.34;100.00
15308;BME280;7755;52.208;6.964;2023-02-17T18:06:36;101609.59;;;11.32;100.00
15308;BME280;7755;52.208;6.964;2023-02-17T18:10:42;101612.75;;;11.29;100.00
15308;BME280;7755;52.208;6.964;2023-02-17T18:14:48;101631.38;;;11.32;100.00
15308;BME280;7755;52.208;6.964;2023-02-17T18:18:53;101651.91;;;11.28;100.00
15308;BME280;7755;52.208;6.964;2023-02-17T18:22:56;101649.25;;;11.21;100.00
15308;BME280;7755;52.208;6.964;2023-02-17T18:27:00;101667.06;;;11.17;100.00
15308;BME280;7755;52.208;6.964;2023-02-17T18:31:05;101658.50;;;11.14;100.00
15308;BME280;7755;52.208;6.964;2023-02-17T18:35:09;101674.06;;;11.07;100.00
15308;BME280;7755;52.208;6.964;2023-02-17T18:39:12;101675.94;;;11.06;100.00
15308;BME280;7755;52.208;6.964;2023-02-17T18:43:16;101687.09;;;10.98;100.00
15308;BME280;7755;52.208;6.964;2023-02-17T18:47:19;101684.59;;;10.97;100.00
15308;BME280;7755;52.208;6.964;2023-02-17T18:51:22;101686.69;;;10.94;100.00
15308;BME280;7755;52.208;6.964;2023-02-17T18:55:27;101692.75;;;10.97;100.00
15308;BME280;7755;52.208;6.964;2023-02-17T18:59:32;101696.28;;;10.97;100.00
15308;BME280;7755;52.208;6.964;2023-02-17T19:03:35;101709.53;;;10.93;100.00
15308;BME280;7755;52.208;6.964;2023-02-17T19:07:38;101715.78;;;10.94;100.00
15308;BME280;7755;52.208;6.964;2023-02-17T19:11:41;101718.50;;;10.94;100.00
15308;BME280;7755;52.208;6.964;2023-02-17T19:15:45;101712.47;;;10.92;100.00
15308;BME280;7755;52.208;6.964;2023-02-17T19:19:49;101715.00;;;10.87;100.00
15308;BME280;7755;52.208;6.964;2023-02-17T19:23:52;101716.66;;;10.88;100.00
15308;BME280;7755;52.208;6.964;2023-02-17T19:27:55;101713.75;;;10.83;100.00
15308;BME280;7755;52.208;6.964;2023-02-17T19:32:00;101718.19;;;10.77;100.00
15308;BME280;7755;52.208;6.964;2023-02-17T19:36:08;101731.59;;;10.72;100.00
15308;BME280;7755;52.208;6.964;2023-02-17T19:40:11;101726.38;;;10.71;100.00
15308;BME280;7755;52.208;6.964;2023-02-17T19:44:14;101737.28;;;10.71;100.00
15308;BME280;7755;52.208;6.964;2023-02-17T19:48:19;101739.13;;;10.70;100.00
15308;BME280;7755;52.208;6.964;2023-02-17T19:52:25;101739.34;;;10.69;100.00
15308;BME280;7755;52.208;6.964;2023-02-17T19:56:32;101736.63;;;10.69;100.00
15308;BME280;7755;52.208;6.964;2023-02-17T20:00:35;101752.13;;;10.68;100.00
15308;BME280;7755;52.208;6.964;2023-02-17T20:04:40;101753.16;;;10.67;100.00
15308;BME280;7755;52.208;6.964;2023-02-17T20:08:44;101748.78;;;10.66;100.00
15308;BME280;7755;52.208;6.964;2023-02-17T20:12:48;101740.22;;;10.62;100.00
15308;BME280;7755;52.208;6.964;2023-02-17T20:16:50;101739.81;;;10.59;100.00
15308;BME280;7755;52.208;6.964;2023-02-17T20:20:57;101735.44;;;10.58;100.00
15308;BME280;7755;52.208;6.964;2023-02-17T20:25:00;101744.66;;;10.57;100.00
15308;BME280;7755;52.208;6.964;2023-02-17T20:29:03;101747.78;;;10.54;100.00
15308;BME280;7755;52.208;6.964;2023-02-17T20:33:06;101748.84;;;10.53;100.00
15308;BME280;7755;52.208;6.964;2023-02-17T20:37:10;101764.09;;;10.54;100.00
15308;BME280;7755;52.208;6.964;2023-02-17T20:41:17;101762.66;;;10.51;100.00
15308;BME280;7755;52.208;6.964;2023-02-17T20:45:20;101757.22;;;10.51;100.00
15308;BME280;7755;52.208;6.964;2023-02-17T20:49:23;101748.41;;;10.49;100.00
15308;BME280;7755;52.208;6.964;2023-02-17T20:53:28;101740.47;;;10.48;100.00
15308;BME280;7755;52.208;6.964;2023-02-17T20:57:31;101745.69;;;10.49;100.00
15308;BME280;7755;52.208;6.964;2023-02-17T21:01:34;101754.50;;;10.45;100.00
15308;BME280;7755;52.208;6.964;2023-02-17T21:05:37;101758.06;;;10.45;100.00
15308;BME280;7755;52.208;6.964;2023-02-17T21:09:42;101750.75;;;10.46;100.00
15308;BME280;7755;52.208;6.964;2023-02-17T21:13:46;101766.22;;;10.45;100.00
15308;BME280;7755;52.208;6.964;2023-02-17T21:17:49;101766.00;;;10.47;100.00
15308;BME280;7755;52.208;6.964;2023-02-17T21:21:52;101785.03;;;10.47;100.00
15308;BME280;7755;52.208;6.964;2023-02-17T21:25:56;101769.78;;;10.46;100.00
15308;BME280;7755;52.208;6.964;2023-02-17T21:29:59;101777.94;;;10.46;100.00